Dikson, Russia
Current Conditions -  °F | °C
As of 4:00 PM on Saturday 25 Oct 2014 (Local Time) from USRR Reporting Station
Snow Showers Snow Showers  
Wind Chill: -2°   Ceiling: Unl
Heat Index: 10°   Visibility: 2.5mi
Dew Point:   Wind: 9mph
Humidity: 79%   Direction: 360°N
Pressure: 29.68"   Gusts: 16mph
Location:  73.51°N, 80.55°E
Report Text: USRR 250900Z 36004G07MPS 330V030 4100 -SHSN SCT017CB SCT039M12/M15 Q1005 TEMPO 2000 SHSN RMK OBST OBSC QFE749 07////55
Loading
Personal Weather Stations






























Interactive Weather Map
Tropical Storm Tracking
New forecast layout! Learn more

10-Day Weather Forecast

Advertisements
Track Severe Weather on mobile